DLH3EB ENGM-EDDF
Flight info
| Callsign | DLH3EB |
|---|---|
| Flight time | 1h 45m |
| Altitude | 33000 |
| Route | VIPPA DCT RAXLU DCT RIMET/N0445F310 T157 KOKEB/N0389F230 T157 KERAX KERAX5D |
| Aircraft | A21N/M-SDE2E3FGHIRWXY/LB1 |
Departure
| Time | 2026-05-07 17:20 |
|---|---|
| Airport | Oslo-Gardermoen International Airport (ENGM) |
Arrival
| Time | 2026-05-07 19:06 |
|---|---|
| Airport | Frankfurt Main Airport (EDDF) |
| Time | Latitude | Longitude | Altitude | Speed | Heading |
|---|---|---|---|---|---|
| 2026-05-07 16:37 | 60.19679 | 11.10229 | 691 ft | 0 kts | 286° |
| 2026-05-07 17:07 | 60.19679 | 11.10230 | 690 ft | 1 kts | 286° |
| 2026-05-07 17:07 | 60.19672 | 11.10277 | 689 ft | 4 kts | 286° |
| 2026-05-07 17:08 | 60.19665 | 11.10328 | 684 ft | 4 kts | 286° |
| 2026-05-07 17:08 | 60.19657 | 11.10380 | 689 ft | 5 kts | 286° |
| 2026-05-07 17:08 | 60.19654 | 11.10402 | 684 ft | 0 kts | 286° |
| 2026-05-07 17:12 | 60.19654 | 11.10403 | 690 ft | 0 kts | 286° |
| 2026-05-07 17:13 | 60.19662 | 11.10392 | 690 ft | 4 kts | 348° |
| 2026-05-07 17:13 | 60.19697 | 11.10426 | 686 ft | 7 kts | 31° |
| 2026-05-07 17:14 | 60.19745 | 11.10482 | 687 ft | 9 kts | 28° |
| 2026-05-07 17:14 | 60.19807 | 11.10532 | 686 ft | 10 kts | 18° |
| 2026-05-07 17:14 | 60.19881 | 11.10574 | 688 ft | 12 kts | 14° |
| 2026-05-07 17:14 | 60.19947 | 11.10670 | 688 ft | 14 kts | 85° |
| 2026-05-07 17:15 | 60.19924 | 11.10864 | 683 ft | 15 kts | 104° |
| 2026-05-07 17:15 | 60.19897 | 11.11073 | 683 ft | 16 kts | 104° |
| 2026-05-07 17:15 | 60.19862 | 11.11290 | 686 ft | 17 kts | 107° |
| 2026-05-07 17:15 | 60.19839 | 11.11482 | 683 ft | 5 kts | 71° |
| 2026-05-07 17:16 | 60.19874 | 11.11538 | 688 ft | 8 kts | 12° |
| 2026-05-07 17:16 | 60.19916 | 11.11561 | 688 ft | 9 kts | 18° |
| 2026-05-07 17:16 | 60.19946 | 11.11581 | 686 ft | 10 kts | 18° |
| 2026-05-07 17:16 | 60.20016 | 11.11625 | 692 ft | 11 kts | 18° |
| 2026-05-07 17:17 | 60.20097 | 11.11676 | 692 ft | 13 kts | 17° |
| 2026-05-07 17:17 | 60.20175 | 11.11761 | 692 ft | 14 kts | 72° |
| 2026-05-07 17:17 | 60.20165 | 11.11864 | 688 ft | 8 kts | 108° |
| 2026-05-07 17:17 | 60.20146 | 11.11979 | 691 ft | 10 kts | 106° |
| 2026-05-07 17:18 | 60.20126 | 11.12124 | 688 ft | 12 kts | 105° |
| 2026-05-07 17:18 | 60.20101 | 11.12227 | 692 ft | 5 kts | 160° |
| 2026-05-07 17:18 | 60.20075 | 11.12223 | 692 ft | 0 kts | 196° |
| 2026-05-07 17:19 | 60.20070 | 11.12220 | 691 ft | 6 kts | 196° |
| 2026-05-07 17:19 | 60.19788 | 11.12057 | 689 ft | 80 kts | 196° |
| 2026-05-07 17:19 | 60.19026 | 11.11619 | 688 ft | 147 kts | 196° |
| 2026-05-07 17:20 | 60.17961 | 11.11020 | 912 ft | 155 kts | 194° |
| 2026-05-07 17:20 | 60.16947 | 11.10493 | 1492 ft | 156 kts | 197° |
| 2026-05-07 17:20 | 60.15877 | 11.09822 | 1944 ft | 166 kts | 197° |
| 2026-05-07 17:20 | 60.14740 | 11.09151 | 2348 ft | 176 kts | 197° |
| 2026-05-07 17:21 | 60.14038 | 11.08744 | 2564 ft | 182 kts | 196° |
| 2026-05-07 17:21 | 60.13276 | 11.08353 | 2796 ft | 189 kts | 192° |
| 2026-05-07 17:21 | 60.11940 | 11.08002 | 3157 ft | 201 kts | 186° |
| 2026-05-07 17:21 | 60.11693 | 11.07951 | 3216 ft | 203 kts | 186° |
| 2026-05-07 17:22 | 60.10364 | 11.07670 | 3540 ft | 214 kts | 187° |
| 2026-05-07 17:22 | 60.08848 | 11.07338 | 3923 ft | 222 kts | 186° |
| 2026-05-07 17:22 | 60.07290 | 11.06993 | 4324 ft | 228 kts | 187° |
| 2026-05-07 17:22 | 60.06385 | 11.06783 | 4534 ft | 231 kts | 188° |
| 2026-05-07 17:23 | 60.04793 | 11.06090 | 4982 ft | 236 kts | 195° |
| 2026-05-07 17:23 | 60.03179 | 11.05214 | 5352 ft | 247 kts | 196° |
| 2026-05-07 17:23 | 60.01485 | 11.04271 | 5664 ft | 258 kts | 196° |
| 2026-05-07 17:23 | 59.99719 | 11.03287 | 6014 ft | 266 kts | 196° |
| 2026-05-07 17:24 | 59.98517 | 11.02619 | 6261 ft | 270 kts | 196° |
| 2026-05-07 17:24 | 59.97191 | 11.01887 | 6612 ft | 275 kts | 196° |
| 2026-05-07 17:24 | 59.95332 | 11.00865 | 7385 ft | 277 kts | 197° |
| 2026-05-07 17:24 | 59.93477 | 10.99845 | 8232 ft | 277 kts | 197° |
| 2026-05-07 17:25 | 59.92037 | 10.99052 | 8867 ft | 279 kts | 197° |
| 2026-05-07 17:25 | 59.90665 | 10.98297 | 9466 ft | 280 kts | 197° |
| 2026-05-07 17:25 | 59.89577 | 10.97700 | 9929 ft | 281 kts | 197° |
| 2026-05-07 17:25 | 59.87662 | 10.96648 | 10493 ft | 291 kts | 198° |
| 2026-05-07 17:26 | 59.85649 | 10.95538 | 10797 ft | 309 kts | 198° |
| 2026-05-07 17:26 | 59.83520 | 10.94368 | 11055 ft | 328 kts | 198° |
| 2026-05-07 17:26 | 59.81284 | 10.93145 | 11309 ft | 346 kts | 198° |
| 2026-05-07 17:26 | 59.78910 | 10.91849 | 11681 ft | 359 kts | 198° |
| 2026-05-07 17:27 | 59.76478 | 10.90528 | 12319 ft | 363 kts | 198° |
| 2026-05-07 17:27 | 59.74112 | 10.89243 | 12996 ft | 366 kts | 198° |
| 2026-05-07 17:27 | 59.71540 | 10.87845 | 13423 ft | 377 kts | 198° |
| 2026-05-07 17:27 | 59.69002 | 10.86459 | 13687 ft | 389 kts | 198° |
| 2026-05-07 17:28 | 59.66356 | 10.85019 | 13894 ft | 400 kts | 198° |
| 2026-05-07 17:28 | 59.63634 | 10.83548 | 14095 ft | 408 kts | 198° |
| 2026-05-07 17:28 | 59.60881 | 10.82065 | 14548 ft | 413 kts | 198° |
| 2026-05-07 17:28 | 59.58101 | 10.80570 | 15188 ft | 414 kts | 198° |
| 2026-05-07 17:29 | 59.55327 | 10.79076 | 15906 ft | 413 kts | 199° |
| 2026-05-07 17:29 | 59.52556 | 10.77589 | 16592 ft | 412 kts | 199° |
| 2026-05-07 17:29 | 59.49793 | 10.76106 | 17184 ft | 414 kts | 199° |
| 2026-05-07 17:29 | 59.47025 | 10.74616 | 17478 ft | 424 kts | 199° |
| 2026-05-07 17:30 | 59.44164 | 10.73080 | 17854 ft | 429 kts | 199° |
| 2026-05-07 17:30 | 59.41288 | 10.71549 | 18489 ft | 427 kts | 199° |
| 2026-05-07 17:30 | 59.38420 | 10.70027 | 19040 ft | 427 kts | 199° |
| 2026-05-07 17:30 | 59.35560 | 10.68509 | 19593 ft | 426 kts | 199° |
| 2026-05-07 17:31 | 59.32697 | 10.66988 | 20173 ft | 425 kts | 199° |
| 2026-05-07 17:31 | 59.29846 | 10.65476 | 20745 ft | 424 kts | 199° |
| 2026-05-07 17:31 | 59.26996 | 10.63966 | 21334 ft | 423 kts | 200° |
| 2026-05-07 17:31 | 59.24149 | 10.62463 | 21920 ft | 422 kts | 200° |
| 2026-05-07 17:32 | 59.21336 | 10.60980 | 22511 ft | 422 kts | 200° |
| 2026-05-07 17:32 | 59.18503 | 10.59488 | 23112 ft | 421 kts | 200° |
| 2026-05-07 17:32 | 59.15681 | 10.58005 | 23672 ft | 420 kts | 200° |
| 2026-05-07 17:32 | 59.12857 | 10.56524 | 24162 ft | 419 kts | 200° |
| 2026-05-07 17:33 | 59.10052 | 10.55056 | 24658 ft | 418 kts | 200° |
| 2026-05-07 17:33 | 59.07253 | 10.53494 | 25147 ft | 415 kts | 205° |
| 2026-05-07 17:33 | 59.04719 | 10.51104 | 25625 ft | 407 kts | 214° |
| 2026-05-07 17:33 | 59.02072 | 10.48986 | 26092 ft | 417 kts | 198° |
| 2026-05-07 17:34 | 58.99165 | 10.48448 | 26535 ft | 426 kts | 184° |
| 2026-05-07 17:34 | 58.96195 | 10.48717 | 26988 ft | 427 kts | 182° |
| 2026-05-07 17:34 | 58.93247 | 10.48918 | 27239 ft | 431 kts | 184° |
| 2026-05-07 17:34 | 58.90244 | 10.48928 | 27399 ft | 437 kts | 186° |
| 2026-05-07 17:35 | 58.87181 | 10.48814 | 27505 ft | 443 kts | 186° |
| 2026-05-07 17:35 | 58.84066 | 10.48646 | 27629 ft | 451 kts | 186° |
| 2026-05-07 17:35 | 58.80901 | 10.48462 | 27749 ft | 458 kts | 186° |
| 2026-05-07 17:35 | 58.77690 | 10.48274 | 27887 ft | 465 kts | 186° |
| 2026-05-07 17:36 | 58.74451 | 10.48090 | 28306 ft | 464 kts | 186° |
| 2026-05-07 17:36 | 58.71283 | 10.47907 | 28696 ft | 464 kts | 186° |
| 2026-05-07 17:36 | 58.68028 | 10.47710 | 28885 ft | 468 kts | 186° |
| 2026-05-07 17:36 | 58.64749 | 10.47524 | 29012 ft | 474 kts | 186° |
| 2026-05-07 17:37 | 58.58137 | 10.47157 | 29160 ft | 482 kts | 185° |
| 2026-05-07 17:37 | 58.54775 | 10.46968 | 29283 ft | 484 kts | 185° |
| 2026-05-07 17:37 | 58.51409 | 10.46780 | 29445 ft | 484 kts | 185° |
| 2026-05-07 17:38 | 58.48040 | 10.46589 | 29633 ft | 484 kts | 185° |
| 2026-05-07 17:38 | 58.44687 | 10.46400 | 29863 ft | 480 kts | 186° |
| 2026-05-07 17:38 | 58.41375 | 10.46213 | 30167 ft | 478 kts | 186° |
| 2026-05-07 17:38 | 58.38071 | 10.46029 | 30455 ft | 476 kts | 186° |
| 2026-05-07 17:39 | 58.35062 | 10.45864 | 30719 ft | 474 kts | 186° |
| 2026-05-07 17:39 | 58.33504 | 10.45777 | 30858 ft | 473 kts | 186° |
| 2026-05-07 17:39 | 58.30217 | 10.45594 | 31159 ft | 471 kts | 186° |
| 2026-05-07 17:39 | 58.26955 | 10.45412 | 31461 ft | 470 kts | 186° |
| 2026-05-07 17:40 | 58.23691 | 10.45229 | 31763 ft | 468 kts | 186° |
| 2026-05-07 17:40 | 58.20436 | 10.45047 | 32073 ft | 466 kts | 186° |
| 2026-05-07 17:40 | 58.17261 | 10.44872 | 32380 ft | 464 kts | 186° |
| 2026-05-07 17:40 | 58.14047 | 10.44695 | 32694 ft | 462 kts | 186° |
| 2026-05-07 17:41 | 58.10841 | 10.44517 | 33011 ft | 460 kts | 186° |
| 2026-05-07 17:41 | 58.07635 | 10.44339 | 33164 ft | 461 kts | 186° |
| 2026-05-07 17:41 | 58.01157 | 10.43977 | 33156 ft | 471 kts | 185° |
| 2026-05-07 17:42 | 57.94604 | 10.43619 | 33139 ft | 474 kts | 185° |
| 2026-05-07 17:42 | 57.88018 | 10.43261 | 33141 ft | 475 kts | 185° |
| 2026-05-07 17:43 | 57.81427 | 10.42902 | 33138 ft | 475 kts | 185° |
| 2026-05-07 17:43 | 57.74822 | 10.42539 | 33129 ft | 475 kts | 184° |
| 2026-05-07 17:44 | 57.68227 | 10.42184 | 33138 ft | 474 kts | 184° |
| 2026-05-07 17:44 | 57.61681 | 10.41832 | 33139 ft | 474 kts | 184° |
| 2026-05-07 17:45 | 57.55071 | 10.41475 | 33140 ft | 474 kts | 184° |
| 2026-05-07 17:45 | 57.48468 | 10.41121 | 33128 ft | 474 kts | 184° |
| 2026-05-07 17:46 | 57.41873 | 10.40767 | 33135 ft | 473 kts | 184° |
| 2026-05-07 17:46 | 57.35333 | 10.40427 | 33137 ft | 473 kts | 184° |
| 2026-05-07 17:47 | 57.28790 | 10.40082 | 33139 ft | 473 kts | 184° |
| 2026-05-07 17:47 | 57.22152 | 10.39729 | 33129 ft | 473 kts | 184° |
| 2026-05-07 17:48 | 57.15606 | 10.39385 | 33135 ft | 473 kts | 183° |
| 2026-05-07 17:48 | 57.09024 | 10.39042 | 33136 ft | 473 kts | 183° |
| 2026-05-07 17:49 | 57.02428 | 10.38699 | 33133 ft | 473 kts | 183° |
| 2026-05-07 17:49 | 56.95891 | 10.38356 | 33133 ft | 473 kts | 183° |
| 2026-05-07 17:50 | 56.89302 | 10.38017 | 33131 ft | 473 kts | 183° |
| 2026-05-07 17:50 | 56.82712 | 10.37673 | 33131 ft | 473 kts | 183° |
| 2026-05-07 17:51 | 56.76161 | 10.37334 | 33131 ft | 473 kts | 183° |
| 2026-05-07 17:51 | 56.69584 | 10.36999 | 33129 ft | 473 kts | 183° |
| 2026-05-07 17:52 | 56.62997 | 10.36660 | 33124 ft | 473 kts | 182° |
| 2026-05-07 17:52 | 56.56459 | 10.36325 | 33129 ft | 473 kts | 182° |
| 2026-05-07 17:53 | 56.49856 | 10.35993 | 33136 ft | 473 kts | 182° |
| 2026-05-07 17:53 | 56.43320 | 10.35665 | 33140 ft | 473 kts | 182° |
| 2026-05-07 17:54 | 56.36722 | 10.35331 | 33144 ft | 473 kts | 182° |
| 2026-05-07 17:54 | 56.30168 | 10.35001 | 33156 ft | 473 kts | 182° |
| 2026-05-07 17:55 | 56.23575 | 10.34672 | 33135 ft | 474 kts | 182° |
| 2026-05-07 17:55 | 56.17007 | 10.34343 | 33134 ft | 474 kts | 182° |
| 2026-05-07 17:56 | 56.10395 | 10.34011 | 33135 ft | 474 kts | 181° |
| 2026-05-07 17:56 | 56.03783 | 10.33687 | 33136 ft | 474 kts | 181° |
| 2026-05-07 17:57 | 55.98287 | 10.33417 | 33142 ft | 474 kts | 181° |
| 2026-05-07 17:57 | 55.90611 | 10.33037 | 33138 ft | 475 kts | 181° |
| 2026-05-07 17:58 | 55.85073 | 10.32764 | 33126 ft | 474 kts | 181° |
| 2026-05-07 17:58 | 55.78501 | 10.32444 | 33129 ft | 474 kts | 181° |
| 2026-05-07 17:59 | 55.71889 | 10.32124 | 33125 ft | 474 kts | 181° |
| 2026-05-07 17:59 | 55.65328 | 10.31806 | 33126 ft | 474 kts | 181° |
| 2026-05-07 18:00 | 55.58716 | 10.31483 | 33131 ft | 474 kts | 181° |
| 2026-05-07 18:00 | 55.52143 | 10.31168 | 33134 ft | 474 kts | 181° |
| 2026-05-07 18:01 | 55.45529 | 10.30850 | 33130 ft | 474 kts | 181° |
| 2026-05-07 18:01 | 55.38971 | 10.30537 | 33133 ft | 474 kts | 181° |
| 2026-05-07 18:02 | 55.29053 | 10.30064 | 33126 ft | 474 kts | 181° |
| 2026-05-07 18:03 | 55.22488 | 10.29752 | 33137 ft | 474 kts | 181° |
| 2026-05-07 18:03 | 55.15878 | 10.29436 | 33143 ft | 474 kts | 181° |
| 2026-05-07 18:04 | 55.09323 | 10.29128 | 33145 ft | 474 kts | 181° |
| 2026-05-07 18:04 | 55.02724 | 10.28818 | 33152 ft | 474 kts | 180° |
| 2026-05-07 18:05 | 54.96124 | 10.28508 | 33150 ft | 474 kts | 180° |
| 2026-05-07 18:05 | 54.89557 | 10.28201 | 33150 ft | 474 kts | 180° |
| 2026-05-07 18:06 | 54.82961 | 10.27894 | 33159 ft | 474 kts | 180° |
| 2026-05-07 18:06 | 54.76362 | 10.27584 | 33146 ft | 474 kts | 180° |
| 2026-05-07 18:07 | 54.69794 | 10.27292 | 33156 ft | 474 kts | 179° |
| 2026-05-07 18:07 | 54.63205 | 10.27198 | 33148 ft | 474 kts | 179° |
| 2026-05-07 18:08 | 54.56634 | 10.27104 | 33145 ft | 474 kts | 179° |
| 2026-05-07 18:08 | 54.50041 | 10.26992 | 33140 ft | 473 kts | 179° |
| 2026-05-07 18:09 | 54.43459 | 10.26877 | 33148 ft | 473 kts | 179° |
| 2026-05-07 18:09 | 54.36908 | 10.26766 | 33156 ft | 473 kts | 179° |
| 2026-05-07 18:10 | 54.30325 | 10.26653 | 33156 ft | 472 kts | 179° |
| 2026-05-07 18:10 | 54.23769 | 10.26541 | 33143 ft | 470 kts | 179° |
| 2026-05-07 18:11 | 54.17234 | 10.26431 | 33148 ft | 470 kts | 179° |
| 2026-05-07 18:11 | 54.10717 | 10.26322 | 33132 ft | 471 kts | 179° |
| 2026-05-07 18:12 | 54.04162 | 10.26211 | 33130 ft | 470 kts | 179° |
| 2026-05-07 18:12 | 53.97670 | 10.26102 | 33128 ft | 470 kts | 179° |
| 2026-05-07 18:13 | 53.91147 | 10.25995 | 33128 ft | 468 kts | 179° |
| 2026-05-07 18:13 | 53.84625 | 10.25884 | 33126 ft | 469 kts | 179° |
| 2026-05-07 18:14 | 53.78092 | 10.25773 | 33119 ft | 466 kts | 180° |
| 2026-05-07 18:14 | 53.71624 | 10.25668 | 33118 ft | 464 kts | 180° |
| 2026-05-07 18:15 | 53.65196 | 10.25563 | 33130 ft | 464 kts | 180° |
| 2026-05-07 18:15 | 53.58735 | 10.25459 | 33133 ft | 464 kts | 180° |
| 2026-05-07 18:16 | 53.52274 | 10.25354 | 33133 ft | 464 kts | 181° |
| 2026-05-07 18:16 | 53.45809 | 10.25243 | 33119 ft | 464 kts | 181° |
| 2026-05-07 18:17 | 53.39375 | 10.25141 | 33114 ft | 464 kts | 181° |
| 2026-05-07 18:17 | 53.32904 | 10.25037 | 33104 ft | 464 kts | 181° |
| 2026-05-07 18:18 | 53.26476 | 10.24922 | 33100 ft | 465 kts | 181° |
| 2026-05-07 18:18 | 53.19991 | 10.24821 | 33127 ft | 465 kts | 181° |
| 2026-05-07 18:19 | 53.13506 | 10.24723 | 33118 ft | 467 kts | 181° |
| 2026-05-07 18:19 | 53.07039 | 10.24622 | 33118 ft | 467 kts | 181° |
| 2026-05-07 18:20 | 53.00530 | 10.24515 | 33117 ft | 468 kts | 181° |
| 2026-05-07 18:20 | 52.94046 | 10.24412 | 33119 ft | 467 kts | 181° |
| 2026-05-07 18:21 | 52.87528 | 10.24308 | 33140 ft | 467 kts | 181° |
| 2026-05-07 18:21 | 52.81004 | 10.24203 | 33130 ft | 467 kts | 181° |
| 2026-05-07 18:22 | 52.74502 | 10.24101 | 33112 ft | 467 kts | 181° |
| 2026-05-07 18:22 | 52.68030 | 10.23999 | 33135 ft | 467 kts | 181° |
| 2026-05-07 18:23 | 52.61511 | 10.23897 | 33121 ft | 467 kts | 180° |
| 2026-05-07 18:23 | 52.54989 | 10.23795 | 33111 ft | 468 kts | 181° |
| 2026-05-07 18:24 | 52.48520 | 10.23690 | 33131 ft | 468 kts | 181° |
| 2026-05-07 18:24 | 52.41998 | 10.23595 | 33130 ft | 468 kts | 181° |
| 2026-05-07 18:25 | 52.35510 | 10.23494 | 33113 ft | 469 kts | 181° |
| 2026-05-07 18:25 | 52.29042 | 10.23391 | 33108 ft | 469 kts | 181° |
| 2026-05-07 18:26 | 52.22503 | 10.23293 | 33118 ft | 470 kts | 181° |
| 2026-05-07 18:26 | 52.16012 | 10.23194 | 33102 ft | 470 kts | 181° |
| 2026-05-07 18:27 | 52.09467 | 10.23096 | 33103 ft | 470 kts | 181° |
| 2026-05-07 18:27 | 52.02905 | 10.22992 | 33113 ft | 470 kts | 181° |
| 2026-05-07 18:28 | 51.96368 | 10.22892 | 32971 ft | 469 kts | 181° |
| 2026-05-07 18:28 | 51.93145 | 10.22845 | 32748 ft | 470 kts | 181° |
| 2026-05-07 18:28 | 51.89873 | 10.22796 | 32495 ft | 470 kts | 181° |
| 2026-05-07 18:28 | 51.86601 | 10.22747 | 32230 ft | 470 kts | 181° |
| 2026-05-07 18:29 | 51.83319 | 10.22696 | 31973 ft | 470 kts | 181° |
| 2026-05-07 18:29 | 51.80048 | 10.22645 | 31708 ft | 470 kts | 181° |
| 2026-05-07 18:29 | 51.76775 | 10.22593 | 31372 ft | 470 kts | 181° |
| 2026-05-07 18:29 | 51.73540 | 10.22544 | 30928 ft | 471 kts | 181° |
| 2026-05-07 18:30 | 51.70255 | 10.22494 | 30445 ft | 470 kts | 181° |
| 2026-05-07 18:30 | 51.66978 | 10.22446 | 29926 ft | 471 kts | 181° |
| 2026-05-07 18:30 | 51.63689 | 10.22397 | 29342 ft | 472 kts | 181° |
| 2026-05-07 18:30 | 51.60402 | 10.22349 | 28778 ft | 474 kts | 181° |
| 2026-05-07 18:31 | 51.57148 | 10.22300 | 28231 ft | 474 kts | 181° |
| 2026-05-07 18:31 | 51.53866 | 10.22252 | 27688 ft | 475 kts | 181° |
| 2026-05-07 18:31 | 51.50550 | 10.22202 | 27154 ft | 476 kts | 181° |
| 2026-05-07 18:31 | 51.47246 | 10.22152 | 26633 ft | 477 kts | 181° |
| 2026-05-07 18:32 | 51.43965 | 10.22101 | 26124 ft | 479 kts | 181° |
| 2026-05-07 18:32 | 51.40623 | 10.22051 | 25619 ft | 480 kts | 181° |
| 2026-05-07 18:32 | 51.37274 | 10.22001 | 25212 ft | 482 kts | 181° |
| 2026-05-07 18:32 | 51.33918 | 10.21952 | 25082 ft | 483 kts | 181° |
| 2026-05-07 18:33 | 51.30605 | 10.21901 | 25064 ft | 464 kts | 182° |
| 2026-05-07 18:33 | 51.27458 | 10.21835 | 25062 ft | 448 kts | 182° |
| 2026-05-07 18:33 | 51.24329 | 10.21765 | 25071 ft | 446 kts | 182° |
| 2026-05-07 18:33 | 51.21231 | 10.21699 | 25079 ft | 445 kts | 182° |
| 2026-05-07 18:34 | 51.18139 | 10.21634 | 25082 ft | 445 kts | 182° |
| 2026-05-07 18:34 | 51.15049 | 10.21570 | 25085 ft | 445 kts | 182° |
| 2026-05-07 18:34 | 51.11994 | 10.21509 | 25079 ft | 444 kts | 181° |
| 2026-05-07 18:34 | 51.08947 | 10.21456 | 24797 ft | 434 kts | 181° |
| 2026-05-07 18:35 | 51.05928 | 10.21403 | 24483 ft | 432 kts | 182° |
| 2026-05-07 18:35 | 51.02924 | 10.21350 | 24227 ft | 430 kts | 181° |
| 2026-05-07 18:35 | 50.99948 | 10.20954 | 23971 ft | 427 kts | 194° |
| 2026-05-07 18:35 | 50.97228 | 10.19350 | 23733 ft | 423 kts | 209° |
| 2026-05-07 18:36 | 50.94856 | 10.16641 | 23458 ft | 420 kts | 224° |
| 2026-05-07 18:36 | 50.92851 | 10.13267 | 23209 ft | 418 kts | 229° |
| 2026-05-07 18:36 | 50.90920 | 10.09809 | 22925 ft | 417 kts | 229° |
| 2026-05-07 18:36 | 50.89011 | 10.06418 | 22640 ft | 416 kts | 229° |
| 2026-05-07 18:37 | 50.87068 | 10.03019 | 22371 ft | 414 kts | 228° |
| 2026-05-07 18:37 | 50.85133 | 9.99664 | 22107 ft | 413 kts | 228° |
| 2026-05-07 18:37 | 50.83196 | 9.96323 | 21840 ft | 411 kts | 228° |
| 2026-05-07 18:37 | 50.81270 | 9.93000 | 21572 ft | 410 kts | 228° |
| 2026-05-07 18:38 | 50.79339 | 9.89678 | 21313 ft | 408 kts | 228° |
| 2026-05-07 18:38 | 50.77435 | 9.86408 | 21056 ft | 407 kts | 228° |
| 2026-05-07 18:38 | 50.75520 | 9.83120 | 20799 ft | 406 kts | 228° |
| 2026-05-07 18:38 | 50.73607 | 9.79842 | 20538 ft | 404 kts | 228° |
| 2026-05-07 18:39 | 50.71700 | 9.76578 | 20289 ft | 403 kts | 228° |
| 2026-05-07 18:39 | 50.69799 | 9.73333 | 20041 ft | 402 kts | 228° |
| 2026-05-07 18:39 | 50.67908 | 9.70104 | 19794 ft | 400 kts | 228° |
| 2026-05-07 18:39 | 50.66043 | 9.66922 | 19552 ft | 399 kts | 228° |
| 2026-05-07 18:40 | 50.64158 | 9.63714 | 19304 ft | 398 kts | 228° |
| 2026-05-07 18:40 | 50.62279 | 9.60518 | 19063 ft | 396 kts | 228° |
| 2026-05-07 18:40 | 50.60406 | 9.57337 | 18822 ft | 395 kts | 228° |
| 2026-05-07 18:40 | 50.58539 | 9.54168 | 18585 ft | 394 kts | 228° |
| 2026-05-07 18:41 | 50.56705 | 9.51062 | 18334 ft | 384 kts | 228° |
| 2026-05-07 18:41 | 50.54889 | 9.47989 | 18052 ft | 384 kts | 228° |
| 2026-05-07 18:41 | 50.53070 | 9.44915 | 17790 ft | 382 kts | 228° |
| 2026-05-07 18:41 | 50.51261 | 9.41861 | 17525 ft | 381 kts | 228° |
| 2026-05-07 18:42 | 50.49460 | 9.38827 | 17249 ft | 379 kts | 228° |
| 2026-05-07 18:42 | 50.47667 | 9.35809 | 16985 ft | 377 kts | 228° |
| 2026-05-07 18:42 | 50.45898 | 9.32834 | 16727 ft | 376 kts | 228° |
| 2026-05-07 18:42 | 50.44116 | 9.29838 | 16466 ft | 375 kts | 228° |
| 2026-05-07 18:43 | 50.42336 | 9.26853 | 16214 ft | 373 kts | 228° |
| 2026-05-07 18:43 | 50.40569 | 9.23891 | 15961 ft | 371 kts | 228° |
| 2026-05-07 18:43 | 50.39519 | 9.22175 | 15815 ft | 370 kts | 224° |
| 2026-05-07 18:43 | 50.39378 | 9.21970 | 15796 ft | 370 kts | 223° |
| 2026-05-07 18:44 | 50.37286 | 9.19701 | 15558 ft | 371 kts | 210° |
| 2026-05-07 18:44 | 50.35012 | 9.17802 | 15323 ft | 370 kts | 208° |
| 2026-05-07 18:44 | 50.32725 | 9.15939 | 15086 ft | 369 kts | 208° |
| 2026-05-07 18:44 | 50.30451 | 9.14069 | 14848 ft | 368 kts | 209° |
| 2026-05-07 18:45 | 50.28271 | 9.11993 | 14595 ft | 365 kts | 220° |
| 2026-05-07 18:45 | 50.26625 | 9.09102 | 14353 ft | 361 kts | 239° |
| 2026-05-07 18:45 | 50.25614 | 9.05526 | 14125 ft | 359 kts | 251° |
| 2026-05-07 18:45 | 50.24811 | 9.01855 | 13898 ft | 357 kts | 252° |
| 2026-05-07 18:46 | 50.24278 | 8.99417 | 13719 ft | 357 kts | 251° |
| 2026-05-07 18:46 | 50.23457 | 8.95754 | 13457 ft | 355 kts | 251° |
| 2026-05-07 18:46 | 50.22350 | 8.90951 | 13108 ft | 354 kts | 251° |
| 2026-05-07 18:46 | 50.21510 | 8.87349 | 12982 ft | 353 kts | 250° |
| 2026-05-07 18:47 | 50.20949 | 8.84956 | 12978 ft | 353 kts | 250° |
| 2026-05-07 18:47 | 50.20100 | 8.81350 | 12990 ft | 353 kts | 250° |
| 2026-05-07 18:47 | 50.19247 | 8.77732 | 13003 ft | 354 kts | 250° |
| 2026-05-07 18:47 | 50.18117 | 8.72956 | 12966 ft | 353 kts | 250° |
| 2026-05-07 18:48 | 50.17552 | 8.70570 | 12851 ft | 353 kts | 250° |
| 2026-05-07 18:48 | 50.16701 | 8.66985 | 12624 ft | 352 kts | 250° |
| 2026-05-07 18:48 | 50.15851 | 8.63409 | 12408 ft | 351 kts | 250° |
| 2026-05-07 18:48 | 50.15002 | 8.59836 | 12171 ft | 350 kts | 250° |
| 2026-05-07 18:49 | 50.14155 | 8.56285 | 11993 ft | 349 kts | 250° |
| 2026-05-07 18:49 | 50.13306 | 8.52731 | 11974 ft | 349 kts | 250° |
| 2026-05-07 18:49 | 50.12466 | 8.49239 | 11986 ft | 342 kts | 250° |
| 2026-05-07 18:49 | 50.11661 | 8.45901 | 11925 ft | 323 kts | 250° |
| 2026-05-07 18:50 | 50.10889 | 8.42692 | 11746 ft | 309 kts | 250° |
| 2026-05-07 18:50 | 50.10147 | 8.39611 | 11521 ft | 298 kts | 250° |
| 2026-05-07 18:50 | 50.09432 | 8.36655 | 11335 ft | 286 kts | 250° |
| 2026-05-07 18:50 | 50.08745 | 8.33815 | 11177 ft | 274 kts | 250° |
| 2026-05-07 18:51 | 50.08086 | 8.31089 | 11042 ft | 261 kts | 250° |
| 2026-05-07 18:51 | 50.07469 | 8.28543 | 10914 ft | 251 kts | 250° |
| 2026-05-07 18:51 | 50.06851 | 8.25998 | 10798 ft | 251 kts | 250° |
| 2026-05-07 18:51 | 50.06235 | 8.23456 | 10681 ft | 251 kts | 250° |
| 2026-05-07 18:52 | 50.05616 | 8.20913 | 10564 ft | 251 kts | 250° |
| 2026-05-07 18:52 | 50.05005 | 8.18402 | 10449 ft | 250 kts | 250° |
| 2026-05-07 18:52 | 50.04389 | 8.15872 | 10332 ft | 250 kts | 250° |
| 2026-05-07 18:52 | 50.03772 | 8.13344 | 10212 ft | 250 kts | 250° |
| 2026-05-07 18:53 | 50.03154 | 8.10817 | 10090 ft | 249 kts | 250° |
| 2026-05-07 18:53 | 50.02540 | 8.08297 | 9983 ft | 249 kts | 250° |
| 2026-05-07 18:53 | 50.01929 | 8.05786 | 9848 ft | 249 kts | 250° |
| 2026-05-07 18:53 | 50.01315 | 8.03273 | 9724 ft | 248 kts | 250° |
| 2026-05-07 18:54 | 50.00704 | 8.00773 | 9620 ft | 247 kts | 250° |
| 2026-05-07 18:54 | 50.00111 | 7.98302 | 9356 ft | 242 kts | 250° |
| 2026-05-07 18:54 | 49.99526 | 7.95850 | 8937 ft | 242 kts | 250° |
| 2026-05-07 18:54 | 49.98945 | 7.93441 | 8535 ft | 241 kts | 250° |
| 2026-05-07 18:55 | 49.98349 | 7.90987 | 8142 ft | 240 kts | 250° |
| 2026-05-07 18:55 | 49.97764 | 7.88586 | 7747 ft | 238 kts | 250° |
| 2026-05-07 18:55 | 49.96963 | 7.86391 | 7377 ft | 239 kts | 227° |
| 2026-05-07 18:55 | 49.95555 | 7.84995 | 7004 ft | 241 kts | 198° |
| 2026-05-07 18:56 | 49.93890 | 7.84782 | 6648 ft | 243 kts | 172° |
| 2026-05-07 18:56 | 49.92237 | 7.85302 | 6293 ft | 243 kts | 167° |
| 2026-05-07 18:56 | 49.90646 | 7.86052 | 5906 ft | 242 kts | 149° |
| 2026-05-07 18:56 | 49.89441 | 7.87838 | 5515 ft | 242 kts | 121° |
| 2026-05-07 18:57 | 49.88898 | 7.90269 | 5164 ft | 239 kts | 93° |
| 2026-05-07 18:57 | 49.89084 | 7.92742 | 4999 ft | 222 kts | 69° |
| 2026-05-07 18:57 | 49.89699 | 7.94845 | 4982 ft | 212 kts | 61° |
| 2026-05-07 18:57 | 49.90368 | 7.96885 | 5049 ft | 213 kts | 62° |
| 2026-05-07 18:58 | 49.91018 | 7.98977 | 5054 ft | 218 kts | 63° |
| 2026-05-07 18:58 | 49.91666 | 8.01140 | 5047 ft | 223 kts | 64° |
| 2026-05-07 18:58 | 49.92311 | 8.03310 | 5028 ft | 220 kts | 64° |
| 2026-05-07 18:58 | 49.92944 | 8.05477 | 5012 ft | 220 kts | 65° |
| 2026-05-07 18:59 | 49.93548 | 8.07661 | 5016 ft | 220 kts | 65° |
| 2026-05-07 18:59 | 49.94136 | 8.09859 | 5018 ft | 220 kts | 67° |
| 2026-05-07 18:59 | 49.94675 | 8.12062 | 5025 ft | 220 kts | 68° |
| 2026-05-07 18:59 | 49.95213 | 8.14295 | 5019 ft | 220 kts | 68° |
| 2026-05-07 19:00 | 49.95750 | 8.16531 | 4967 ft | 220 kts | 68° |
| 2026-05-07 19:00 | 49.96280 | 8.18736 | 4759 ft | 219 kts | 68° |
| 2026-05-07 19:00 | 49.96803 | 8.20917 | 4470 ft | 212 kts | 68° |
| 2026-05-07 19:00 | 49.97310 | 8.23029 | 4165 ft | 205 kts | 68° |
| 2026-05-07 19:01 | 49.97800 | 8.25071 | 3872 ft | 199 kts | 68° |
| 2026-05-07 19:01 | 49.98274 | 8.27049 | 3583 ft | 191 kts | 68° |
| 2026-05-07 19:01 | 49.98727 | 8.28937 | 3337 ft | 182 kts | 68° |
| 2026-05-07 19:01 | 49.99163 | 8.30757 | 3099 ft | 178 kts | 68° |
| 2026-05-07 19:02 | 49.99587 | 8.32523 | 2834 ft | 175 kts | 68° |
| 2026-05-07 19:02 | 49.99996 | 8.34229 | 2581 ft | 172 kts | 68° |
| 2026-05-07 19:02 | 50.00424 | 8.36014 | 2321 ft | 171 kts | 68° |
| 2026-05-07 19:02 | 50.00837 | 8.37738 | 2074 ft | 170 kts | 68° |
| 2026-05-07 19:03 | 50.01243 | 8.39434 | 1826 ft | 163 kts | 68° |
| 2026-05-07 19:03 | 50.01620 | 8.41005 | 1603 ft | 144 kts | 69° |
| 2026-05-07 19:03 | 50.01952 | 8.42392 | 1375 ft | 134 kts | 69° |
| 2026-05-07 19:03 | 50.02274 | 8.43734 | 1200 ft | 134 kts | 69° |
| 2026-05-07 19:04 | 50.02603 | 8.45090 | 1019 ft | 134 kts | 69° |
| 2026-05-07 19:04 | 50.02929 | 8.46440 | 827 ft | 132 kts | 69° |
| 2026-05-07 19:04 | 50.03010 | 8.46785 | 774 ft | 132 kts | 69° |
| 2026-05-07 19:04 | 50.03016 | 8.46809 | 771 ft | 132 kts | 69° |
| 2026-05-07 19:05 | 50.03299 | 8.48022 | 600 ft | 130 kts | 70° |
| 2026-05-07 19:05 | 50.03608 | 8.49336 | 407 ft | 129 kts | 68° |
| 2026-05-07 19:05 | 50.03925 | 8.50611 | 327 ft | 118 kts | 69° |
| 2026-05-07 19:05 | 50.04153 | 8.51559 | 339 ft | 66 kts | 70° |
| 2026-05-07 19:06 | 50.04254 | 8.51991 | 347 ft | 34 kts | 70° |
| 2026-05-07 19:06 | 50.04396 | 8.52692 | 356 ft | 33 kts | 85° |
| 2026-05-07 19:06 | 50.04371 | 8.52995 | 364 ft | 29 kts | 99° |
| 2026-05-07 19:07 | 50.04349 | 8.53273 | 369 ft | 19 kts | 83° |
| 2026-05-07 19:07 | 50.04394 | 8.53477 | 380 ft | 22 kts | 93° |
| 2026-05-07 19:07 | 50.04405 | 8.53681 | 381 ft | 18 kts | 84° |
| 2026-05-07 19:07 | 50.04419 | 8.53880 | 381 ft | 19 kts | 84° |
| 2026-05-07 19:08 | 50.04432 | 8.54085 | 381 ft | 14 kts | 84° |
| 2026-05-07 19:08 | 50.04444 | 8.54244 | 381 ft | 16 kts | 83° |
| 2026-05-07 19:08 | 50.04450 | 8.54335 | 379 ft | 16 kts | 83° |
| 2026-05-07 19:08 | 50.04455 | 8.54407 | 377 ft | 17 kts | 86° |
| 2026-05-07 19:09 | 50.04437 | 8.54568 | 371 ft | 15 kts | 111° |
| 2026-05-07 19:09 | 50.04376 | 8.54709 | 369 ft | 16 kts | 136° |
| 2026-05-07 19:09 | 50.04310 | 8.54775 | 363 ft | 11 kts | 153° |
| 2026-05-07 19:09 | 50.04237 | 8.54820 | 357 ft | 12 kts | 174° |
| 2026-05-07 19:10 | 50.04166 | 8.54854 | 360 ft | 9 kts | 159° |
| 2026-05-07 19:10 | 50.04107 | 8.54889 | 356 ft | 6 kts | 159° |
| 2026-05-07 19:10 | 50.04088 | 8.54900 | 358 ft | 3 kts | 159° |
| 2026-05-07 19:10 | 50.04061 | 8.54916 | 361 ft | 6 kts | 159° |
| 2026-05-07 19:11 | 50.04018 | 8.54952 | 360 ft | 9 kts | 121° |
| 2026-05-07 19:11 | 50.04028 | 8.55056 | 366 ft | 11 kts | 69° |
| 2026-05-07 19:11 | 50.04057 | 8.55177 | 362 ft | 13 kts | 69° |
| 2026-05-07 19:11 | 50.04091 | 8.55317 | 360 ft | 15 kts | 69° |
| 2026-05-07 19:12 | 50.04128 | 8.55472 | 359 ft | 16 kts | 69° |
| 2026-05-07 19:12 | 50.04169 | 8.55641 | 364 ft | 18 kts | 69° |
| 2026-05-07 19:12 | 50.04213 | 8.55826 | 360 ft | 18 kts | 69° |
| 2026-05-07 19:12 | 50.04249 | 8.55954 | 361 ft | 11 kts | 49° |
| 2026-05-07 19:13 | 50.04328 | 8.55937 | 361 ft | 13 kts | 341° |
| 2026-05-07 19:13 | 50.04397 | 8.55902 | 367 ft | 8 kts | 343° |
| 2026-05-07 19:13 | 50.04459 | 8.55921 | 365 ft | 10 kts | 22° |
| 2026-05-07 19:13 | 50.04524 | 8.55956 | 363 ft | 6 kts | 18° |
| 2026-05-07 19:14 | 50.04562 | 8.55999 | 363 ft | 8 kts | 64° |
| 2026-05-07 19:14 | 50.04585 | 8.56092 | 366 ft | 10 kts | 69° |
| 2026-05-07 19:14 | 50.04613 | 8.56205 | 365 ft | 12 kts | 69° |
| 2026-05-07 19:14 | 50.04642 | 8.56327 | 361 ft | 9 kts | 70° |
| 2026-05-07 19:15 | 50.04659 | 8.56401 | 367 ft | 8 kts | 70° |
| 2026-05-07 19:15 | 50.04679 | 8.56489 | 363 ft | 10 kts | 70° |
| 2026-05-07 19:15 | 50.04704 | 8.56558 | 363 ft | 5 kts | 50° |
| 2026-05-07 19:15 | 50.04731 | 8.56610 | 365 ft | 7 kts | 50° |
| 2026-05-07 19:16 | 50.04754 | 8.56656 | 364 ft | 4 kts | 78° |
| 2026-05-07 19:16 | 50.04747 | 8.56701 | 362 ft | 3 kts | 112° |
| 2026-05-07 19:16 | 50.04740 | 8.56727 | 368 ft | 0 kts | 113° |
| 2026-05-07 19:16 | 50.04738 | 8.56733 | 366 ft | 1 kts | 114° |
| 2026-05-07 19:17 | 50.04737 | 8.56736 | 366 ft | 0 kts | 114° |